Time;durP1;ratioP1;P1;durP2;ratioP2;P2;SDS_P1;SDS_P2;PMS_P1;PMS_P2;Temp;Humidity;BMP_temperature;BMP_pressure;BME280_temperature;BME280_humidity;BME280_pressure;Samples;Min_cycle;Max_cycle;Signal;HPM_P1;HPM_P2
2022/08/25 00:01:59;;;;;;;11.93;8.10;;;20.10;99.90;;;;;;5077521;28;20063;-72
2022/08/25 00:04:25;;;;;;;12.23;8.32;;;20.00;99.90;;;;;;5078493;28;20095;-72
2022/08/25 00:06:52;;;;;;;11.10;8.00;;;20.10;99.90;;;;;;5059686;28;20041;-72
2022/08/25 00:09:20;;;;;;;10.30;7.50;;;20.00;99.90;;;;;;5058502;28;20508;-72
2022/08/25 00:11:48;;;;;;;12.20;7.95;;;20.00;99.90;;;;;;5066299;28;20352;-72
2022/08/25 00:14:18;;;;;;;11.00;7.72;;;20.00;99.90;;;;;;5043709;28;20044;-72
2022/08/25 00:16:44;;;;;;;14.93;8.27;;;20.00;99.90;;;;;;5077312;28;20518;-72
2022/08/25 00:19:14;;;;;;;11.55;7.45;;;19.90;99.90;;;;;;5060377;28;20049;-72
2022/08/25 00:21:40;;;;;;;11.35;7.65;;;19.90;99.90;;;;;;5077644;28;20040;-72
2022/08/25 00:24:08;;;;;;;10.73;7.43;;;19.90;99.90;;;;;;5076227;28;20128;-72
2022/08/25 00:26:36;;;;;;;12.48;7.47;;;19.90;99.90;;;;;;5072358;28;20052;-72
2022/08/25 00:29:02;;;;;;;11.40;7.07;;;19.80;99.90;;;;;;5068747;28;20045;-73
2022/08/25 00:31:28;;;;;;;12.50;7.70;;;19.80;99.90;;;;;;5040608;28;20506;-72
2022/08/25 00:33:54;;;;;;;9.43;6.80;;;19.80;99.90;;;;;;5061788;28;20044;-72
2022/08/25 00:36:20;;;;;;;9.68;7.03;;;19.80;99.90;;;;;;5070251;28;20036;-72
2022/08/25 00:38:46;;;;;;;8.02;6.88;;;19.80;99.90;;;;;;5062557;28;20376;-72
2022/08/25 00:41:15;;;;;;;15.65;7.18;;;19.80;99.90;;;;;;5065418;28;20454;-72
2022/08/25 00:43:41;;;;;;;11.57;6.80;;;19.70;99.90;;;;;;5070101;28;20330;-72
2022/08/25 00:46:11;;;;;;;12.50;7.20;;;19.80;99.90;;;;;;5061946;28;20041;-72
2022/08/25 00:48:39;;;;;;;11.43;7.45;;;19.70;99.90;;;;;;5074503;28;20047;-72
2022/08/25 00:51:08;;;;;;;9.63;7.28;;;19.70;99.90;;;;;;5065754;28;20412;-72
2022/08/25 00:53:34;;;;;;;8.65;6.60;;;19.50;99.90;;;;;;5072369;28;20433;-72
2022/08/25 00:56:00;;;;;;;14.05;6.78;;;19.60;99.90;;;;;;5059352;28;20063;-72
2022/08/25 00:58:29;;;;;;;9.23;6.70;;;19.50;99.90;;;;;;5072263;28;20053;-72
2022/08/25 01:00:56;;;;;;;9.68;7.03;;;19.50;99.90;;;;;;5058482;28;20128;-72
2022/08/25 01:03:24;;;;;;;12.82;6.60;;;19.50;99.90;;;;;;5057244;28;20124;-72
2022/08/25 01:05:51;;;;;;;11.05;6.65;;;19.50;99.90;;;;;;5057099;28;20449;-71
2022/08/25 01:08:20;;;;;;;9.73;6.32;;;19.50;99.90;;;;;;5056957;28;20508;-72
2022/08/25 01:10:48;;;;;;;7.50;6.15;;;19.40;99.90;;;;;;5073269;28;20449;-72
2022/08/25 01:13:30;;;;;;;13.52;6.35;;;19.40;99.90;;;;;;5073029;28;20102;-72
2022/08/25 01:15:56;;;;;;;10.68;6.78;;;19.40;99.90;;;;;;5056889;28;20056;-72
2022/08/25 01:18:22;;;;;;;7.95;5.78;;;19.40;99.90;;;;;;5057329;28;20084;-72
2022/08/25 01:20:56;;;;;;;8.10;5.95;;;19.40;99.90;;;;;;5056439;28;20110;-72
2022/08/25 01:23:23;;;;;;;9.98;6.70;;;19.40;99.90;;;;;;5065898;28;20115;-72
2022/08/25 01:26:09;;;;;;;10.45;6.22;;;19.30;99.90;;;;;;5072441;28;20124;-73
2022/08/25 01:28:36;;;;;;;20.70;6.40;;;19.40;99.90;;;;;;5056842;28;20195;-72
2022/08/25 01:31:01;;;;;;;8.85;6.80;;;19.30;99.90;;;;;;5056843;28;20036;-72
2022/08/25 01:33:27;;;;;;;8.85;6.45;;;19.30;99.90;;;;;;5057198;28;20055;-72
2022/08/25 01:35:53;;;;;;;8.20;6.32;;;19.30;99.90;;;;;;5056662;28;20045;-72
2022/08/25 01:38:19;;;;;;;11.18;6.25;;;19.30;99.90;;;;;;5056837;28;20087;-72
2022/08/25 01:40:46;;;;;;;10.65;7.05;;;19.30;99.90;;;;;;5056598;28;20040;-72
2022/08/25 01:43:20;;;;;;;13.27;6.47;;;19.20;99.90;;;;;;5056758;28;20114;-72
2022/08/25 01:45:47;;;;;;;9.15;6.05;;;19.20;99.90;;;;;;5056533;28;20041;-71
2022/08/25 01:48:14;;;;;;;10.27;6.30;;;19.20;99.90;;;;;;5056423;28;20063;-72
2022/08/25 01:50:40;;;;;;;9.45;6.32;;;19.20;99.90;;;;;;5056910;28;20352;-73
2022/08/25 01:53:13;;;;;;;9.75;6.53;;;19.10;99.90;;;;;;5056021;28;20525;-72
2022/08/25 01:55:51;;;;;;;12.18;5.97;;;19.10;99.90;;;;;;5056209;28;20056;-72
2022/08/25 01:58:25;;;;;;;11.20;6.45;;;19.10;99.90;;;;;;5056242;28;20064;-72
2022/08/25 02:00:54;;;;;;;12.02;6.10;;;19.00;99.90;;;;;;5056599;28;20343;-72
2022/08/25 02:03:20;;;;;;;11.32;6.38;;;19.00;99.90;;;;;;5056571;28;20326;-72
2022/08/25 02:05:46;;;;;;;10.23;6.40;;;19.00;99.90;;;;;;5038894;28;20110;-72
2022/08/25 02:08:12;;;;;;;10.70;6.57;;;19.00;99.90;;;;;;5055963;28;20041;-72
2022/08/25 02:10:39;;;;;;;9.02;6.03;;;18.90;99.90;;;;;;5056317;28;20049;-72
2022/08/25 02:13:06;;;;;;;11.90;5.88;;;18.90;99.90;;;;;;5073547;28;20036;-72
2022/08/25 02:15:32;;;;;;;9.70;5.72;;;19.00;99.90;;;;;;5076147;28;20091;-72
2022/08/25 02:17:58;;;;;;;12.35;6.35;;;18.90;99.90;;;;;;5076286;28;20088;-72
2022/08/25 02:20:24;;;;;;;13.23;6.43;;;18.90;99.90;;;;;;5075233;28;20478;-72
2022/08/25 02:22:53;;;;;;;11.45;5.90;;;18.90;99.90;;;;;;5075929;28;20075;-72
2022/08/25 02:25:19;;;;;;;11.35;5.80;;;18.90;99.90;;;;;;5075682;28;20049;-72
2022/08/25 02:27:45;;;;;;;12.23;6.90;;;18.80;99.90;;;;;;5075844;28;20052;-72
2022/08/25 02:30:12;;;;;;;10.32;6.10;;;18.80;99.90;;;;;;5040868;28;20056;-72
2022/08/25 02:32:39;;;;;;;10.00;5.65;;;18.80;99.90;;;;;;5075724;28;20444;-72
2022/08/25 02:35:05;;;;;;;7.72;5.55;;;18.80;99.90;;;;;;5024562;28;20075;-72
2022/08/25 02:37:31;;;;;;;12.70;6.47;;;18.70;99.90;;;;;;5075906;28;20085;-72
2022/08/25 02:39:58;;;;;;;7.43;5.53;;;18.70;99.90;;;;;;5075984;28;20063;-72
2022/08/25 02:42:23;;;;;;;9.75;5.97;;;18.70;99.90;;;;;;5075846;28;20094;-72
2022/08/25 02:44:49;;;;;;;7.93;5.72;;;18.60;99.90;;;;;;5075693;28;20049;-72
2022/08/25 02:47:15;;;;;;;10.95;6.00;;;18.60;99.90;;;;;;5075585;28;20048;-72
2022/08/25 02:49:41;;;;;;;8.48;6.10;;;18.60;99.90;;;;;;5075339;28;20077;-73
2022/08/25 02:52:07;;;;;;;13.05;6.70;;;18.60;99.90;;;;;;5075250;28;20128;-72
2022/08/25 02:54:34;;;;;;;11.73;6.05;;;18.60;99.90;;;;;;5075179;28;20106;-72
2022/08/25 02:56:59;;;;;;;11.35;6.30;;;18.60;99.90;;;;;;5075420;28;20114;-72
2022/08/25 02:59:26;;;;;;;9.35;5.80;;;18.60;99.90;;;;;;5075154;28;20048;-72
2022/08/25 03:01:52;;;;;;;7.47;6.03;;;18.50;99.90;;;;;;5075204;28;20514;-72
2022/08/25 03:04:18;;;;;;;10.63;6.00;;;18.50;99.90;;;;;;5074907;28;20526;-72
2022/08/25 03:06:44;;;;;;;8.95;5.85;;;18.50;99.90;;;;;;5075064;28;20127;-72
2022/08/25 03:09:10;;;;;;;14.40;6.88;;;18.50;99.90;;;;;;5075261;28;20379;-72
2022/08/25 03:11:37;;;;;;;9.13;5.53;;;18.40;99.90;;;;;;5069839;28;20098;-72
2022/08/25 03:14:04;;;;;;;7.82;5.50;;;18.40;99.90;;;;;;5054918;28;20154;-72
2022/08/25 03:16:30;;;;;;;12.70;5.43;;;18.40;99.90;;;;;;5070966;28;20045;-72
2022/08/25 03:18:56;;;;;;;8.63;5.80;;;18.40;99.90;;;;;;5054683;28;20041;-72
2022/08/25 03:21:23;;;;;;;9.65;5.65;;;18.30;99.90;;;;;;5055298;28;20053;-72
2022/08/25 03:23:49;;;;;;;10.60;5.72;;;18.30;99.90;;;;;;5054724;28;20084;-72
2022/08/25 03:29:03;;;;;;;13.23;6.05;;;18.20;99.90;;;;;;5054994;28;20049;-72
2022/08/25 03:31:31;;;;;;;14.05;6.40;;;18.20;99.90;;;;;;5054290;28;20049;-72
2022/08/25 03:33:57;;;;;;;11.68;6.30;;;18.20;99.90;;;;;;5037170;28;20044;-72
2022/08/25 03:36:24;;;;;;;9.52;6.50;;;18.10;99.90;;;;;;5054888;28;20175;-72
2022/08/25 03:38:50;;;;;;;11.82;6.00;;;18.10;99.90;;;;;;5054695;28;20052;-72
2022/08/25 03:41:24;;;;;;;10.48;6.30;;;18.00;99.90;;;;;;5054825;28;20132;-72
2022/08/25 03:43:50;;;;;;;13.35;6.35;;;18.00;99.90;;;;;;5054533;28;20373;-72
2022/08/25 03:46:24;;;;;;;10.73;6.13;;;18.00;99.90;;;;;;5054583;28;20056;-72
2022/08/25 03:48:51;;;;;;;10.15;6.30;;;17.90;99.90;;;;;;5037721;28;20424;-71
2022/08/25 03:51:26;;;;;;;11.20;5.93;;;17.90;99.90;;;;;;5037372;28;20191;-72
2022/08/25 03:53:52;;;;;;;11.10;6.68;;;17.90;99.90;;;;;;5054691;28;20076;-72
2022/08/25 03:56:18;;;;;;;8.38;5.40;;;17.90;99.90;;;;;;5058145;28;20489;-72
2022/08/25 03:58:44;;;;;;;13.45;6.82;;;17.80;99.90;;;;;;5037474;28;20587;-72
2022/08/25 04:01:09;;;;;;;10.73;5.72;;;17.80;99.90;;;;;;5054229;28;20461;-71
2022/08/25 04:03:35;;;;;;;9.85;5.97;;;17.70;99.90;;;;;;5054444;28;20043;-72
2022/08/25 04:06:03;;;;;;;11.75;6.20;;;17.80;99.90;;;;;;5048928;28;20076;-72
2022/08/25 04:08:29;;;;;;;9.52;6.57;;;17.70;99.90;;;;;;5054606;28;20045;-72
2022/08/25 04:10:54;;;;;;;8.52;5.40;;;17.70;99.90;;;;;;5063765;28;20411;-72
2022/08/25 04:13:20;;;;;;;13.02;6.05;;;17.70;99.90;;;;;;5074227;28;20044;-71
2022/08/25 04:15:46;;;;;;;12.80;6.40;;;17.70;99.90;;;;;;5074302;28;20044;-72
2022/08/25 04:18:13;;;;;;;9.38;5.90;;;17.60;99.90;;;;;;5074431;28;20040;-71
2022/08/25 04:20:41;;;;;;;10.80;6.35;;;17.60;99.90;;;;;;5074413;28;20040;-72
2022/08/25 04:23:08;;;;;;;9.30;6.25;;;17.60;99.90;;;;;;5060976;28;20049;-72
2022/08/25 04:25:34;;;;;;;7.03;5.43;;;17.60;99.90;;;;;;5054156;28;20075;-72
2022/08/25 04:28:00;;;;;;;12.52;6.30;;;17.60;99.90;;;;;;5054601;28;20060;-72
2022/08/25 04:30:26;;;;;;;7.82;6.30;;;17.60;99.90;;;;;;5054652;28;20041;-73
2022/08/25 04:32:51;;;;;;;14.93;6.45;;;17.60;99.90;;;;;;5054083;28;20052;-72
2022/08/25 04:35:17;;;;;;;9.88;6.28;;;17.60;99.90;;;;;;5070469;28;20061;-73
2022/08/25 04:37:43;;;;;;;9.45;6.05;;;17.60;99.90;;;;;;5054291;28;20052;-73
2022/08/25 04:40:10;;;;;;;9.35;5.97;;;17.60;99.90;;;;;;5054211;28;20396;-72
2022/08/25 04:42:35;;;;;;;12.55;6.70;;;17.60;99.90;;;;;;5053938;28;20044;-72
2022/08/25 04:45:03;;;;;;;9.25;5.68;;;17.60;99.90;;;;;;5057099;28;20071;-71
2022/08/25 04:47:28;;;;;;;13.32;6.18;;;17.60;99.90;;;;;;5045168;28;20053;-72
2022/08/25 04:49:54;;;;;;;7.38;5.68;;;17.60;99.90;;;;;;5057652;28;20045;-72
2022/08/25 04:52:19;;;;;;;12.65;6.20;;;17.60;99.90;;;;;;5057184;28;20083;-73
2022/08/25 04:54:45;;;;;;;10.40;6.20;;;17.60;99.90;;;;;;5073595;28;20079;-72
2022/08/25 04:57:11;;;;;;;9.85;6.13;;;17.70;99.90;;;;;;5057649;28;20143;-72
2022/08/25 04:59:37;;;;;;;9.02;6.80;;;17.60;99.90;;;;;;5057891;28;20085;-72
2022/08/25 05:02:04;;;;;;;9.82;6.30;;;17.60;99.90;;;;;;5057279;28;20053;-72
2022/08/25 05:04:31;;;;;;;8.75;5.57;;;17.60;99.90;;;;;;5057829;28;20353;-72
2022/08/25 05:06:57;;;;;;;10.65;5.90;;;17.60;99.90;;;;;;5057167;28;20052;-71
2022/08/25 05:09:24;;;;;;;10.02;6.18;;;17.60;99.90;;;;;;5057293;28;20045;-72
2022/08/25 05:11:50;;;;;;;11.15;6.07;;;17.60;99.90;;;;;;5058886;28;20440;-72
2022/08/25 05:14:20;;;;;;;11.90;6.07;;;17.70;99.90;;;;;;5076950;28;20165;-72
2022/08/25 05:16:47;;;;;;;10.63;6.65;;;17.70;99.90;;;;;;5077305;28;20080;-72
2022/08/25 05:19:12;;;;;;;8.57;5.80;;;17.70;99.90;;;;;;5077379;28;20056;-71
2022/08/25 05:21:39;;;;;;;12.65;6.75;;;17.70;99.90;;;;;;5076897;28;20044;-72
2022/08/25 05:24:04;;;;;;;11.05;6.13;;;17.70;99.90;;;;;;5077349;28;20170;-72
2022/08/25 05:26:32;;;;;;;9.43;6.45;;;17.80;99.90;;;;;;5076959;28;20049;-72
2022/08/25 05:29:00;;;;;;;13.70;6.78;;;17.80;99.90;;;;;;5076562;28;20056;-72
2022/08/25 05:31:26;;;;;;;9.13;6.20;;;17.90;99.90;;;;;;5077267;28;20048;-72
2022/08/25 05:33:52;;;;;;;9.38;6.57;;;17.90;99.90;;;;;;5076977;28;20044;-72
2022/08/25 05:36:19;;;;;;;9.27;6.38;;;17.90;99.90;;;;;;5077046;28;20045;-72
2022/08/25 05:38:45;;;;;;;11.02;6.60;;;18.00;99.90;;;;;;5076680;28;20040;-71
2022/08/25 05:41:15;;;;;;;10.60;6.32;;;18.00;99.90;;;;;;5076949;28;20036;-72
2022/08/25 05:43:41;;;;;;;13.13;7.22;;;18.00;99.90;;;;;;5036867;28;20466;-72
2022/08/25 05:46:08;;;;;;;10.98;6.97;;;18.10;99.90;;;;;;5052426;28;20124;-72
2022/08/25 05:48:34;;;;;;;12.05;6.90;;;18.10;99.90;;;;;;5056799;28;20113;-72
2022/08/25 05:51:03;;;;;;;10.77;6.60;;;18.20;99.90;;;;;;5056670;28;20155;-72
2022/08/25 05:53:29;;;;;;;12.57;7.15;;;18.30;99.90;;;;;;5055868;28;20057;-72
2022/08/25 05:55:56;;;;;;;11.00;6.60;;;18.40;99.90;;;;;;5056470;28;20060;-72
2022/08/25 05:58:23;;;;;;;12.77;6.72;;;18.50;99.90;;;;;;5056210;28;20088;-72
2022/08/25 06:00:50;;;;;;;10.90;6.43;;;19.20;99.90;;;;;;5070833;28;20051;-72
2022/08/25 06:03:16;;;;;;;9.27;6.30;;;20.40;99.90;;;;;;5076200;28;20052;-72
2022/08/25 06:05:42;;;;;;;8.52;6.15;;;21.40;99.90;;;;;;5076187;28;20048;-72
2022/08/25 06:08:07;;;;;;;8.57;5.35;;;22.40;99.90;;;;;;5076085;28;20375;-71
2022/08/25 06:10:33;;;;;;;9.65;6.13;;;23.20;99.90;;;;;;5075898;28;20037;-72
2022/08/25 06:12:59;;;;;;;9.65;5.50;;;24.00;99.90;;;;;;5076073;28;20047;-71
2022/08/25 06:15:25;;;;;;;8.77;5.70;;;24.60;99.90;;;;;;5076154;28;20044;-70
2022/08/25 06:17:51;;;;;;;10.65;5.60;;;25.10;99.90;;;;;;5075704;28;20044;-69
2022/08/25 06:20:20;;;;;;;8.52;5.32;;;25.70;99.90;;;;;;5075924;28;20131;-69
2022/08/25 06:22:47;;;;;;;11.23;5.07;;;26.10;98.80;;;;;;5076060;28;20128;-71
2022/08/25 06:25:14;;;;;;;9.60;5.57;;;26.50;98.90;;;;;;5075454;28;20459;-70
2022/08/25 06:27:40;;;;;;;8.02;5.20;;;26.90;98.90;;;;;;5075874;28;20367;-71
2022/08/25 06:30:10;;;;;;;11.30;5.50;;;27.40;97.20;;;;;;5063240;28;20124;-71
2022/08/25 06:32:38;;;;;;;6.57;4.28;;;27.50;96.80;;;;;;5055829;28;20049;-71
2022/08/25 06:35:07;;;;;;;7.60;4.95;;;27.80;96.30;;;;;;5055648;28;20049;-70
2022/08/25 06:37:33;;;;;;;11.20;5.32;;;27.70;95.50;;;;;;5055424;28;20037;-70
2022/08/25 06:39:59;;;;;;;6.72;4.53;;;27.90;95.80;;;;;;5055520;28;20048;-70
2022/08/25 06:42:24;;;;;;;10.85;4.90;;;28.10;95.50;;;;;;5055395;28;20041;-70
2022/08/25 06:44:50;;;;;;;9.20;4.63;;;28.20;95.80;;;;;;5055484;28;20345;-70
2022/08/25 06:47:16;;;;;;;10.60;5.15;;;28.20;95.70;;;;;;5055536;28;20045;-70
2022/08/25 06:49:43;;;;;;;7.05;4.15;;;28.50;95.10;;;;;;5055430;28;20056;-70
2022/08/25 06:52:09;;;;;;;8.32;4.38;;;28.60;95.50;;;;;;5055031;28;20049;-70
2022/08/25 06:54:34;;;;;;;9.18;4.70;;;28.30;95.40;;;;;;5055412;28;20442;-70
2022/08/25 06:57:00;;;;;;;7.97;4.47;;;27.60;95.40;;;;;;5070653;28;20059;-70
2022/08/25 06:59:26;;;;;;;11.43;4.85;;;26.50;95.90;;;;;;5065213;28;20116;-72
2022/08/25 07:01:52;;;;;;;10.55;5.32;;;25.90;96.50;;;;;;5075346;28;20369;-72
2022/08/25 07:04:19;;;;;;;8.45;4.70;;;25.30;96.90;;;;;;5074712;28;20059;-72
2022/08/25 07:06:45;;;;;;;11.00;5.15;;;24.80;97.60;;;;;;5074944;28;20052;-72
2022/08/25 07:09:11;;;;;;;9.40;4.53;;;24.40;98.00;;;;;;5075052;28;20040;-72
2022/08/25 07:11:39;;;;;;;10.50;4.95;;;24.10;98.80;;;;;;5075507;28;20091;-72
2022/08/25 07:14:06;;;;;;;8.15;5.72;;;23.80;98.80;;;;;;5075113;28;20041;-72
2022/08/25 07:16:33;;;;;;;10.63;5.57;;;23.70;99.00;;;;;;5075356;28;20036;-72
2022/08/25 07:19:00;;;;;;;10.80;6.20;;;23.60;99.50;;;;;;5057124;28;20108;-72
2022/08/25 07:21:28;;;;;;;13.43;5.32;;;23.50;99.60;;;;;;5054652;28;20480;-72
2022/08/25 07:23:54;;;;;;;9.60;5.38;;;23.50;99.90;;;;;;5054704;28;20098;-71
2022/08/25 07:26:22;;;;;;;10.85;5.47;;;23.50;99.80;;;;;;5054871;28;20044;-72
2022/08/25 07:28:48;;;;;;;12.00;5.55;;;23.60;99.90;;;;;;5054929;28;20131;-73
2022/08/25 07:31:15;;;;;;;14.23;5.78;;;23.60;99.90;;;;;;5054745;28;20056;-72
2022/08/25 07:35:14;;;;;;;9.25;5.35;;;23.70;99.90;;;;;;5054618;28;20044;-72
2022/08/25 07:36:26;;;;;;;10.02;4.85;;;23.70;99.90;;;;;;5054354;28;20049;-72
2022/08/25 07:38:52;;;;;;;12.30;5.15;;;23.80;99.90;;;;;;5054705;28;20068;-72
2022/08/25 07:41:18;;;;;;;9.98;4.90;;;23.80;99.90;;;;;;5065359;28;20047;-72
2022/08/25 07:43:44;;;;;;;8.00;5.10;;;23.90;99.60;;;;;;5074895;28;20425;-72
2022/08/25 07:46:10;;;;;;;7.55;4.88;;;24.00;99.70;;;;;;5074564;28;20395;-72
2022/08/25 07:48:35;;;;;;;6.32;4.25;;;24.00;99.70;;;;;;5074660;28;20060;-71
2022/08/25 07:51:10;;;;;;;9.60;4.40;;;24.10;99.10;;;;;;5074734;28;20137;-71
2022/08/25 07:53:36;;;;;;;10.35;5.22;;;24.20;99.20;;;;;;5074660;28;20041;-72
2022/08/25 07:56:09;;;;;;;8.95;4.72;;;24.20;99.00;;;;;;5074350;28;20460;-71
2022/08/25 07:58:34;;;;;;;12.93;4.95;;;24.40;99.10;;;;;;5073993;28;20053;-72
2022/08/25 08:01:00;;;;;;;8.45;5.47;;;24.40;98.90;;;;;;5074444;28;20051;-71
2022/08/25 08:03:25;;;;;;;12.32;5.75;;;24.40;98.80;;;;;;5074854;28;20114;-72
2022/08/25 08:05:51;;;;;;;10.02;5.43;;;24.40;98.90;;;;;;5074544;28;20040;-72
2022/08/25 08:08:17;;;;;;;9.30;4.78;;;24.50;99.30;;;;;;5074814;28;20082;-72
2022/08/25 08:10:42;;;;;;;9.32;4.97;;;24.50;99.10;;;;;;5064446;28;20412;-72
2022/08/25 08:13:08;;;;;;;8.70;4.47;;;24.90;99.30;;;;;;5054105;28;20049;-72
2022/08/25 08:15:36;;;;;;;9.35;5.13;;;26.10;98.90;;;;;;5054409;28;20041;-72
2022/08/25 08:18:02;;;;;;;7.63;4.00;;;27.20;98.10;;;;;;5054360;28;20370;-72
2022/08/25 08:20:30;;;;;;;11.93;5.20;;;28.30;97.40;;;;;;5057879;28;20044;-72
2022/08/25 08:22:56;;;;;;;9.43;4.05;;;29.00;95.70;;;;;;5058150;28;20437;-72
2022/08/25 08:25:21;;;;;;;7.90;4.30;;;29.60;95.50;;;;;;5058074;28;20081;-70
2022/08/25 08:27:47;;;;;;;4.70;3.50;;;30.00;95.40;;;;;;5057677;28;20067;-71
2022/08/25 08:30:13;;;;;;;10.02;4.65;;;30.20;95.20;;;;;;5057831;28;20067;-70
2022/08/25 08:32:39;;;;;;;5.10;3.35;;;30.50;94.60;;;;;;5058546;28;20536;-72
2022/08/25 08:35:05;;;;;;;6.82;3.72;;;30.60;94.50;;;;;;5057990;28;20116;-70
2022/08/25 08:37:31;;;;;;;8.65;3.55;;;30.60;94.10;;;;;;5058105;28;20052;-70
2022/08/25 08:40:00;;;;;;;16.65;3.67;;;30.70;93.60;;;;;;5063746;28;20048;-70
2022/08/25 08:42:52;;;;;;;10.98;3.42;;;30.90;93.60;;;;;;5077783;28;20084;-71
2022/08/25 08:45:47;;;;;;;8.40;3.53;;;31.00;93.40;;;;;;5077854;28;20052;-70
2022/08/25 08:48:47;;;;;;;8.50;3.75;;;31.00;92.50;;;;;;5077595;28;20675;-70
2022/08/25 08:51:23;;;;;;;10.13;3.97;;;31.00;92.80;;;;;;5077385;28;20052;-70
2022/08/25 08:53:59;;;;;;;10.73;3.70;;;31.10;92.70;;;;;;5077598;28;20186;-70
2022/08/25 08:56:30;;;;;;;6.90;3.17;;;30.80;92.30;;;;;;5077753;28;20052;-71
2022/08/25 08:59:01;;;;;;;9.85;3.10;;;30.60;92.80;;;;;;5077990;28;20131;-70
2022/08/25 09:01:44;;;;;;;6.22;2.85;;;30.50;93.30;;;;;;5060247;28;20052;-70
2022/08/25 09:04:33;;;;;;;9.02;3.10;;;30.40;93.00;;;;;;5062083;28;20055;-70
2022/08/25 09:07:03;;;;;;;5.43;3.70;;;30.20;93.00;;;;;;5057459;28;20079;-70
2022/08/25 09:09:32;;;;;;;5.45;3.03;;;30.00;93.20;;;;;;5057299;28;20056;-70
2022/08/25 09:12:11;;;;;;;8.65;3.60;;;29.60;93.40;;;;;;5057631;28;20106;-71
2022/08/25 09:14:44;;;;;;;7.90;3.28;;;29.20;92.90;;;;;;5057164;28;20102;-70
2022/08/25 09:17:44;;;;;;;7.38;3.10;;;28.90;93.40;;;;;;5056927;28;20049;-70
2022/08/25 09:20:13;;;;;;;6.45;3.85;;;28.80;94.10;;;;;;5056795;28;20461;-70
2022/08/25 09:22:50;;;;;;;5.75;3.17;;;28.80;93.70;;;;;;5057197;28;20128;-70
2022/08/25 09:25:36;;;;;;;5.80;3.08;;;28.90;93.50;;;;;;5057277;28;20111;-70
2022/08/25 09:28:11;;;;;;;7.03;3.38;;;29.00;93.30;;;;;;5057201;28;20468;-70
2022/08/25 09:31:02;;;;;;;5.65;2.90;;;29.20;93.40;;;;;;5068892;28;20060;-70
2022/08/25 09:33:31;;;;;;;8.07;2.65;;;29.60;93.30;;;;;;5076646;28;20076;-70
2022/08/25 09:35:57;;;;;;;5.90;2.78;;;30.20;93.00;;;;;;5076980;28;20045;-70
2022/08/25 09:38:25;;;;;;;6.63;2.97;;;30.70;92.20;;;;;;5076782;28;20091;-70
2022/08/25 09:40:54;;;;;;;8.43;2.97;;;30.90;91.20;;;;;;5076787;28;20044;-70
2022/08/25 09:43:41;;;;;;;6.07;2.80;;;31.20;91.60;;;;;;5077025;28;20044;-70
2022/08/25 09:46:12;;;;;;;7.80;2.95;;;31.20;91.70;;;;;;5076411;28;20496;-71
2022/08/25 09:49:09;;;;;;;5.07;2.92;;;30.80;91.50;;;;;;5076503;28;20097;-70
2022/08/25 09:51:39;;;;;;;7.60;2.83;;;30.20;91.20;;;;;;5076591;28;20127;-71
2022/08/25 09:54:16;;;;;;;7.57;3.05;;;29.80;91.30;;;;;;5076626;28;20070;-70
2022/08/25 09:56:54;;;;;;;4.55;2.72;;;29.50;91.10;;;;;;5076608;28;20045;-71
2022/08/25 09:59:24;;;;;;;5.65;2.58;;;29.20;90.80;;;;;;5070390;28;20341;-71
2022/08/25 10:01:53;;;;;;;5.00;2.50;;;29.20;90.90;;;;;;5056202;28;20524;-70
2022/08/25 10:04:31;;;;;;;5.22;2.05;;;29.10;90.80;;;;;;5056408;28;20033;-72
2022/08/25 10:06:57;;;;;;;4.15;2.40;;;29.10;90.90;;;;;;5055994;28;20095;-70
2022/08/25 10:09:39;;;;;;;5.05;2.22;;;29.20;90.80;;;;;;5055941;28;20401;-70
2022/08/25 10:12:23;;;;;;;9.45;2.63;;;29.20;91.10;;;;;;5056238;28;20064;-70
2022/08/25 10:14:49;;;;;;;6.97;2.25;;;29.30;90.80;;;;;;5055658;28;20053;-70
2022/08/25 10:17:25;;;;;;;4.35;2.50;;;29.30;90.50;;;;;;5055830;28;20048;-70
2022/08/25 10:20:10;;;;;;;7.38;2.47;;;29.30;90.50;;;;;;5056352;28;20049;-70
2022/08/25 10:22:38;;;;;;;5.50;2.38;;;29.30;90.60;;;;;;5056245;28;20041;-70
2022/08/25 10:25:06;;;;;;;5.40;2.58;;;29.40;91.00;;;;;;5056147;28;20110;-70
2022/08/25 10:27:57;;;;;;;7.70;2.45;;;29.40;90.60;;;;;;5055554;28;20041;-70
2022/08/25 10:31:02;;;;;;;4.57;2.10;;;29.40;89.50;;;;;;5069145;28;20123;-70
2022/08/25 10:33:55;;;;;;;4.30;2.60;;;29.40;90.20;;;;;;5076030;28;20059;-70
2022/08/25 10:36:40;;;;;;;7.20;2.25;;;29.50;90.30;;;;;;5075835;28;20123;-70
2022/08/25 10:39:15;;;;;;;5.25;2.45;;;29.60;88.70;;;;;;5075416;28;20083;-70
2022/08/25 10:41:59;;;;;;;4.45;1.95;;;29.60;90.00;;;;;;5074722;28;20055;-70
2022/08/25 10:47:49;;;;;;;6.90;2.20;;;29.80;89.90;;;;;;5059326;28;20064;-70
2022/08/25 10:50:39;;;;;;;4.13;2.33;;;30.00;89.30;;;;;;5055502;28;20052;-70
2022/08/25 10:53:14;;;;;;;9.00;2.92;;;30.10;89.00;;;;;;5055781;28;20076;-70
2022/08/25 10:55:56;;;;;;;6.30;2.53;;;30.10;88.00;;;;;;5055056;28;20073;-70
2022/08/25 10:58:42;;;;;;;6.28;2.42;;;30.20;88.20;;;;;;5055489;28;20339;-70
2022/08/25 11:01:08;;;;;;;5.53;2.20;;;30.30;87.50;;;;;;5054879;28;20489;-70
2022/08/25 11:03:51;;;;;;;4.53;2.22;;;30.20;87.70;;;;;;5055043;28;20045;-70
2022/08/25 11:06:22;;;;;;;3.65;1.90;;;30.30;86.90;;;;;;5055450;28;20049;-70
2022/08/25 11:08:59;;;;;;;6.75;2.55;;;30.30;87.40;;;;;;5055439;28;20124;-70
2022/08/25 11:11:43;;;;;;;6.05;2.28;;;30.40;86.30;;;;;;5055119;28;20110;-70
2022/08/25 11:14:20;;;;;;;4.72;2.78;;;30.50;86.80;;;;;;5059527;28;20048;-70
2022/08/25 11:16:59;;;;;;;5.90;2.25;;;30.50;85.60;;;;;;5074684;28;20047;-70
2022/08/25 11:19:32;;;;;;;3.85;2.03;;;30.50;86.90;;;;;;5059309;28;20442;-72
2022/08/25 11:22:11;;;;;;;5.25;2.40;;;30.60;87.70;;;;;;5055262;28;20052;-70
2022/08/25 11:24:49;;;;;;;8.57;2.67;;;30.60;86.70;;;;;;5055070;28;20053;-70
2022/08/25 11:27:22;;;;;;;4.07;2.42;;;30.60;85.30;;;;;;5054757;28;20075;-70
2022/08/25 11:30:13;;;;;;;4.55;2.33;;;30.70;86.10;;;;;;5054768;28;20048;-70
2022/08/25 11:32:43;;;;;;;4.85;2.40;;;30.70;87.60;;;;;;5054700;28;20045;-70
2022/08/25 11:35:11;;;;;;;5.65;2.20;;;30.80;86.50;;;;;;5054871;28;20080;-70
2022/08/25 11:38:16;;;;;;;4.40;2.13;;;30.80;85.60;;;;;;5054807;28;20044;-72
2022/08/25 11:40:54;;;;;;;4.57;2.42;;;30.80;84.40;;;;;;5071040;28;20052;-70
2022/08/25 11:43:57;;;;;;;6.57;2.60;;;30.60;85.40;;;;;;5054886;28;20049;-70
2022/08/25 11:46:22;;;;;;;4.55;2.63;;;30.60;85.40;;;;;;5054606;28;20126;-70
2022/08/25 11:49:12;;;;;;;6.28;2.90;;;30.70;86.30;;;;;;5069088;28;20048;-70
2022/08/25 11:51:46;;;;;;;3.78;2.00;;;30.80;85.20;;;;;;5074558;28;20052;-70
2022/08/25 11:54:33;;;;;;;6.65;2.60;;;30.90;85.80;;;;;;5077961;28;20041;-70
2022/08/25 11:57:18;;;;;;;6.72;2.20;;;31.00;85.90;;;;;;5061139;28;20060;-70
2022/08/25 11:59:52;;;;;;;4.55;1.85;;;31.10;84.00;;;;;;5079086;28;20131;-70
2022/08/25 12:02:35;;;;;;;7.43;2.40;;;31.00;83.50;;;;;;5074095;28;20045;-70
2022/08/25 12:05:01;;;;;;;;;;;31.00;84.40;;;;;;5059015;28;20056;-70
2022/08/25 12:07:48;;;;;;;3.53;2.10;;;31.00;84.30;;;;;;5058744;28;19920;-70
2022/08/25 12:10:24;;;;;;;4.10;2.13;;;31.20;86.20;;;;;;5058494;28;20041;-70
2022/08/25 12:13:02;;;;;;;7.30;2.17;;;31.30;82.70;;;;;;5058350;28;20057;-70
2022/08/25 12:15:52;;;;;;;6.50;2.45;;;31.40;84.10;;;;;;5040744;28;20067;-70
2022/08/25 12:18:21;;;;;;;6.88;2.30;;;31.40;83.50;;;;;;5058090;28;20045;-70
2022/08/25 12:21:08;;;;;;;4.53;2.25;;;31.40;83.30;;;;;;5058218;28;20059;-70
2022/08/25 12:23:42;;;;;;;5.15;2.33;;;31.30;83.60;;;;;;5040983;28;20059;-70
2022/08/25 12:26:40;;;;;;;3.95;2.00;;;31.40;84.30;;;;;;5058469;28;20365;-70
2022/08/25 12:29:13;;;;;;;3.75;2.10;;;31.50;84.80;;;;;;5040446;28;20095;-71
2022/08/25 12:31:46;;;;;;;4.35;1.80;;;31.50;82.90;;;;;;5060980;28;20044;-70
2022/08/25 12:34:34;;;;;;;4.70;1.80;;;31.60;80.40;;;;;;5059763;28;20478;-70
2022/08/25 12:37:19;;;;;;;2.85;1.92;;;31.50;82.50;;;;;;5078117;28;20052;-70
2022/08/25 12:39:58;;;;;;;5.57;1.98;;;31.50;81.20;;;;;;5077914;28;20060;-70
2022/08/25 12:42:39;;;;;;;6.07;1.98;;;31.50;82.50;;;;;;5078450;28;20333;-70
2022/08/25 12:45:31;;;;;;;7.05;2.25;;;31.50;83.20;;;;;;5078168;28;20052;-70
2022/08/25 12:48:25;;;;;;;5.72;2.50;;;31.50;82.20;;;;;;5078183;28;20040;-70
2022/08/25 12:51:04;;;;;;;5.05;2.30;;;31.60;82.40;;;;;;5077426;28;20476;-70
2022/08/25 12:53:39;;;;;;;8.35;2.10;;;31.70;83.80;;;;;;5077925;28;20080;-70
2022/08/25 12:56:26;;;;;;;4.65;2.28;;;31.80;82.80;;;;;;5078227;28;20044;-70
2022/08/25 12:59:02;;;;;;;4.35;2.20;;;31.80;80.80;;;;;;5077855;28;20048;-71
2022/08/25 13:01:48;;;;;;;5.00;2.15;;;31.60;81.60;;;;;;5076091;28;20040;-70
2022/08/25 13:04:44;;;;;;;5.00;2.50;;;31.60;81.20;;;;;;5056615;28;20045;-70
2022/08/25 13:07:35;;;;;;;4.15;2.42;;;31.60;81.40;;;;;;5057178;28;20437;-70
2022/08/25 13:10:09;;;;;;;3.80;2.17;;;31.60;82.50;;;;;;5057489;28;20052;-70